Time;durP1;ratioP1;P1;durP2;ratioP2;P2;SDS_P1;SDS_P2;PMS_P1;PMS_P2;Temp;Humidity;BMP_temperature;BMP_pressure;BME280_temperature;BME280_humidity;BME280_pressure;Samples;Min_cycle;Max_cycle;Signal;HPM_P1;HPM_P2
2022/02/09 00:00:45;;;;;;;3.08;1.10;;;;;;;;;;4940837;29;20043;-52
2022/02/09 00:03:14;;;;;;;2.20;1.23;;;;;;;;;;4942261;29;20494;-49
2022/02/09 00:05:44;;;;;;;2.45;1.48;;;;;;;;;;4948030;29;20023;-50
2022/02/09 00:08:10;;;;;;;2.83;1.33;;;;;;;;;;4930306;29;20050;-50
2022/02/09 00:10:38;;;;;;;2.53;1.40;;;;;;;;;;4939619;29;20035;-50
2022/02/09 00:18:35;;;;;;;3.70;1.48;;;;;;;;;;4944985;29;20078;-49
2022/02/09 01:56:28;;;;;;;2.75;1.30;;;;;;;;;;4951202;29;20029;-50
2022/02/09 01:58:54;;;;;;;2.43;1.17;;;;;;;;;;4943977;29;20497;-49
2022/02/09 02:01:19;;;;;;;1.52;1.05;;;;;;;;;;4946974;29;20467;-49
2022/02/09 02:03:44;;;;;;;2.47;1.07;;;;;;;;;;4927498;29;20470;-52
2022/02/09 02:06:10;;;;;;;2.40;1.10;;;;;;;;;;4950585;29;21148;-49
2022/02/09 02:08:35;;;;;;;2.28;1.20;;;;;;;;;;4946972;29;20286;-50
2022/02/09 02:18:48;;;;;;;2.42;1.20;;;;;;;;;;4945206;29;20061;-50
2022/02/09 03:11:37;;;;;;;1.97;0.80;;;;;;;;;;4944803;29;20050;-51
2022/02/09 03:14:13;;;;;;;2.30;0.98;;;;;;;;;;4943628;29;20038;-50
2022/02/09 03:16:44;;;;;;;1.77;1.00;;;;;;;;;;4950151;29;20019;-50
2022/02/09 03:19:33;;;;;;;2.05;1.00;;;;;;;;;;4941278;29;20585;-50
2022/02/09 03:49:26;;;;;;;1.50;0.80;;;;;;;;;;4944433;29;20118;-49
2022/02/09 03:51:41;;;;;;;2.70;1.52;;;;;;;;;;4946399;29;20036;-49
2022/02/09 03:59:33;;;;;;;2.83;1.33;;;;;;;;;;4939302;29;20046;-49
2022/02/09 04:01:59;;;;;;;1.52;0.70;;;;;;;;;;4949079;29;20500;-50
2022/02/09 04:04:25;;;;;;;2.35;1.02;;;;;;;;;;4942474;29;20106;-48
2022/02/09 04:06:51;;;;;;;2.72;1.10;;;;;;;;;;4948874;29;20055;-51
2022/02/09 04:09:20;;;;;;;2.15;1.00;;;;;;;;;;4940593;29;20063;-48
2022/02/09 04:11:57;;;;;;;2.17;0.90;;;;;;;;;;4947803;29;20020;-50
2022/02/09 04:17:01;;;;;;;1.40;0.80;;;;;;;;;;4949378;29;20513;-50
2022/02/09 04:49:05;;;;;;;1.73;0.80;;;;;;;;;;4939454;28;20027;-50
2022/02/09 04:52:01;;;;;;;1.73;0.90;;;;;;;;;;4951071;29;20403;-49
2022/02/09 04:54:41;;;;;;;1.60;0.65;;;;;;;;;;4949781;28;20505;-50
2022/02/09 04:57:14;;;;;;;2.03;0.70;;;;;;;;;;4946845;29;20089;-50
2022/02/09 04:59:50;;;;;;;3.95;1.00;;;;;;;;;;4944708;29;20126;-48
2022/02/09 05:23:19;;;;;;;2.27;0.90;;;;;;;;;;4937582;29;20291;-52
2022/02/09 05:25:50;;;;;;;1.23;0.73;;;;;;;;;;4937603;29;20060;-51
2022/02/09 05:28:18;;;;;;;1.85;0.70;;;;;;;;;;4954552;28;20035;-51
2022/02/09 05:30:45;;;;;;;2.47;0.88;;;;;;;;;;4938042;28;20019;-51
2022/02/09 05:33:10;;;;;;;2.17;0.80;;;;;;;;;;4943790;28;20031;-52
2022/02/09 05:35:35;;;;;;;1.60;0.90;;;;;;;;;;4948560;29;20493;-51
2022/02/09 05:38:01;;;;;;;1.90;0.73;;;;;;;;;;4947935;29;20028;-50
2022/02/09 05:40:27;;;;;;;1.58;0.70;;;;;;;;;;4938650;29;20291;-51
2022/02/09 05:42:52;;;;;;;1.63;0.80;;;;;;;;;;4939371;29;20102;-51
2022/02/09 05:45:19;;;;;;;2.67;0.97;;;;;;;;;;4942716;29;20023;-50
2022/02/09 05:48:17;;;;;;;3.63;0.98;;;;;;;;;;4933400;29;20295;-50
2022/02/09 05:50:50;;;;;;;2.20;0.82;;;;;;;;;;4945692;29;20050;-50
2022/02/09 05:53:21;;;;;;;1.65;0.90;;;;;;;;;;4946822;29;20090;-50
2022/02/09 05:55:53;;;;;;;1.77;0.90;;;;;;;;;;4949478;29;20118;-50
2022/02/09 06:00:56;;;;;;;1.52;0.75;;;;;;;;;;4942205;29;20034;-50
2022/02/09 06:03:21;;;;;;;1.77;0.75;;;;;;;;;;4946166;29;20028;-51
2022/02/09 06:05:47;;;;;;;1.40;0.97;;;;;;;;;;4945021;29;20027;-51
2022/02/09 06:08:12;;;;;;;1.70;0.88;;;;;;;;;;4946199;29;20286;-50
2022/02/09 06:10:39;;;;;;;1.80;0.80;;;;;;;;;;4940657;29;20020;-53
2022/02/09 06:16:13;;;;;;;1.45;0.70;;;;;;;;;;4948425;29;20074;-52
2022/02/09 06:21:23;;;;;;;2.83;0.75;;;;;;;;;;4948169;29;20038;-51
2022/02/09 06:23:48;;;;;;;2.43;1.10;;;;;;;;;;4943584;29;20031;-51
2022/02/09 06:26:13;;;;;;;1.23;0.77;;;;;;;;;;4929904;29;20272;-51
2022/02/09 06:28:39;;;;;;;2.40;0.80;;;;;;;;;;4946730;29;20296;-51
2022/02/09 06:31:04;;;;;;;2.10;0.95;;;;;;;;;;4948100;29;20015;-51
2022/02/09 06:33:29;;;;;;;1.75;0.73;;;;;;;;;;4946254;29;20030;-51
2022/02/09 06:35:57;;;;;;;3.60;1.40;;;;;;;;;;4926062;29;20019;-51
2022/02/09 06:38:23;;;;;;;2.47;0.70;;;;;;;;;;4947544;29;20097;-52
2022/02/09 06:40:53;;;;;;;1.40;0.70;;;;;;;;;;4947441;29;20561;-51
2022/02/09 06:43:18;;;;;;;;;;;;;;;;;;4945641;29;20107;-51
2022/02/09 06:45:43;;;;;;;1.40;0.70;;;;;;;;;;4947418;29;20710;-50
2022/02/09 06:48:09;;;;;;;1.52;0.77;;;;;;;;;;4946403;29;20043;-50
2022/02/09 06:50:39;;;;;;;1.40;0.77;;;;;;;;;;4946977;29;20023;-51
2022/02/09 06:53:28;;;;;;;1.35;0.73;;;;;;;;;;4945428;29;20031;-52
2022/02/09 06:55:58;;;;;;;1.23;0.70;;;;;;;;;;4946032;29;20066;-51
2022/02/09 07:01:01;;;;;;;1.83;0.80;;;;;;;;;;4948902;29;20023;-51
2022/02/09 07:03:26;;;;;;;1.52;0.82;;;;;;;;;;4926541;29;20028;-50
2022/02/09 07:05:51;;;;;;;1.20;0.68;;;;;;;;;;4946372;29;20066;-52
2022/02/09 07:08:17;;;;;;;1.97;0.80;;;;;;;;;;4943586;29;20047;-50
2022/02/09 07:10:42;;;;;;;1.42;0.80;;;;;;;;;;4946742;29;20358;-52
2022/02/09 07:13:08;;;;;;;1.50;0.85;;;;;;;;;;4946956;29;20032;-51
2022/02/09 07:15:39;;;;;;;1.77;0.85;;;;;;;;;;4944997;29;20106;-51
2022/02/09 07:18:09;;;;;;;1.27;0.80;;;;;;;;;;4916743;29;20089;-50
2022/02/09 07:20:56;;;;;;;1.58;0.77;;;;;;;;;;4944469;28;20420;-51
2022/02/09 07:25:48;;;;;;;2.10;0.95;;;;;;;;;;4945855;29;20125;-51
2022/02/09 07:28:13;;;;;;;1.35;0.80;;;;;;;;;;4942779;29;20053;-52
2022/02/09 07:30:38;;;;;;;1.87;0.80;;;;;;;;;;4942931;28;20545;-51
2022/02/09 07:33:04;;;;;;;3.77;0.90;;;;;;;;;;4947632;29;20459;-51
2022/02/09 07:35:31;;;;;;;1.42;0.80;;;;;;;;;;4944109;29;20279;-51
2022/02/09 07:37:56;;;;;;;3.17;0.80;;;;;;;;;;4947474;29;20047;-50
2022/02/09 07:40:21;;;;;;;1.30;0.70;;;;;;;;;;4942965;29;20422;-50
2022/02/09 07:42:54;;;;;;;1.55;0.90;;;;;;;;;;4947491;29;20031;-50
2022/02/09 07:50:41;;;;;;;1.73;0.90;;;;;;;;;;4934149;29;20053;-51
2022/02/09 07:53:11;;;;;;;4.35;0.98;;;;;;;;;;4938957;29;20031;-50
2022/02/09 07:55:36;;;;;;;1.77;1.00;;;;;;;;;;4931084;29;20686;-51
2022/02/09 07:58:02;;;;;;;2.17;1.00;;;;;;;;;;4930581;29;20045;-52
2022/02/09 08:00:28;;;;;;;5.43;1.27;;;;;;;;;;4939659;29;20572;-55
2022/02/09 08:02:53;;;;;;;1.85;1.15;;;;;;;;;;4928724;29;20051;-50
2022/02/09 08:05:19;;;;;;;1.83;1.07;;;;;;;;;;4943135;29;20054;-51
2022/02/09 08:07:44;;;;;;;1.92;1.00;;;;;;;;;;4945628;29;20394;-51
2022/02/09 08:10:20;;;;;;;2.70;1.10;;;;;;;;;;4943170;29;20118;-50
2022/02/09 08:24:17;;;;;;;3.10;1.10;;;;;;;;;;4931862;29;20034;-51
2022/02/09 08:34:11;;;;;;;3.45;0.90;;;;;;;;;;4932262;29;20506;-51
2022/02/09 08:36:36;;;;;;;2.45;1.17;;;;;;;;;;4931066;29;20032;-51
2022/02/09 08:39:02;;;;;;;2.00;1.10;;;;;;;;;;4934820;29;20533;-52
2022/02/09 08:41:27;;;;;;;2.53;1.00;;;;;;;;;;4930030;29;20279;-51
2022/02/09 08:43:52;;;;;;;2.07;0.93;;;;;;;;;;4931824;29;20035;-51
2022/02/09 08:46:18;;;;;;;2.55;1.10;;;;;;;;;;4932998;29;20314;-50
2022/02/09 08:48:43;;;;;;;2.80;0.97;;;;;;;;;;4934639;29;20624;-51
2022/02/09 08:51:08;;;;;;;1.93;1.10;;;;;;;;;;4923890;29;20259;-51
2022/02/09 08:53:34;;;;;;;2.70;1.03;;;;;;;;;;4938479;29;20334;-52
2022/02/09 08:56:00;;;;;;;2.17;1.00;;;;;;;;;;4937228;29;20034;-51
2022/02/09 08:58:25;;;;;;;2.35;1.20;;;;;;;;;;4928718;29;20044;-51
2022/02/09 09:00:56;;;;;;;2.63;1.20;;;;;;;;;;4929614;29;20055;-52
2022/02/09 09:03:26;;;;;;;1.65;1.08;;;;;;;;;;4929878;29;20028;-51
2022/02/09 09:05:55;;;;;;;2.67;1.00;;;;;;;;;;4929882;29;20486;-52
2022/02/09 10:02:22;;;;;;;1.80;0.93;;;;;;;;;;4935665;29;20027;-51
2022/02/09 10:35:30;;;;;;;1.67;0.90;;;;;;;;;;4934006;29;20884;-52
2022/02/09 10:37:58;;;;;;;1.88;0.90;;;;;;;;;;4922505;29;20110;-50
2022/02/09 10:40:27;;;;;;;2.17;0.90;;;;;;;;;;4935116;29;20027;-52
2022/02/09 10:42:58;;;;;;;1.63;0.90;;;;;;;;;;4932641;29;20015;-52
2022/02/09 10:45:48;;;;;;;1.77;0.88;;;;;;;;;;4933295;29;20040;-51
2022/02/09 10:48:35;;;;;;;2.25;1.38;;;;;;;;;;4932824;29;20031;-50
2022/02/09 10:51:26;;;;;;;2.22;0.98;;;;;;;;;;4939939;29;20019;-53
2022/02/09 10:54:10;;;;;;;1.63;0.90;;;;;;;;;;4934008;29;20028;-52
2022/02/09 10:56:36;;;;;;;1.83;0.90;;;;;;;;;;4931030;29;20058;-52
2022/02/09 10:59:06;;;;;;;1.70;0.90;;;;;;;;;;4931048;29;20587;-50
2022/02/09 11:01:31;;;;;;;1.57;0.90;;;;;;;;;;4930609;29;20027;-51
2022/02/09 11:03:56;;;;;;;3.17;1.05;;;;;;;;;;4932146;29;20379;-50
2022/02/09 11:06:26;;;;;;;1.85;0.88;;;;;;;;;;4933540;29;20023;-51
2022/02/09 11:08:51;;;;;;;1.20;0.90;;;;;;;;;;4930363;29;20043;-51
2022/02/09 11:11:17;;;;;;;2.93;1.33;;;;;;;;;;4936564;29;20463;-50
2022/02/09 11:13:42;;;;;;;2.07;1.10;;;;;;;;;;4931493;29;20019;-51
2022/02/09 11:16:07;;;;;;;2.73;0.90;;;;;;;;;;4940869;29;20034;-53
2022/02/09 11:18:33;;;;;;;2.85;1.33;;;;;;;;;;4927727;29;20039;-52
2022/02/09 11:20:59;;;;;;;1.63;0.97;;;;;;;;;;4935921;29;20027;-51
2022/02/09 11:23:50;;;;;;;1.95;1.10;;;;;;;;;;4946692;29;20986;-51
2022/02/09 11:26:39;;;;;;;2.10;0.85;;;;;;;;;;4947415;29;20019;-52
2022/02/09 11:34:48;;;;;;;2.85;1.15;;;;;;;;;;4932804;29;20046;-51
2022/02/09 11:37:14;;;;;;;2.22;1.30;;;;;;;;;;4932050;29;20031;-52
2022/02/09 11:39:49;;;;;;;1.98;1.48;;;;;;;;;;4931868;29;20386;-52
2022/02/09 11:42:38;;;;;;;2.30;1.00;;;;;;;;;;4929555;29;20510;-51
2022/02/09 11:45:24;;;;;;;2.63;0.90;;;;;;;;;;4943087;29;20027;-51
2022/02/09 11:58:49;;;;;;;1.60;0.90;;;;;;;;;;4939373;28;20086;-51
2022/02/09 12:01:38;;;;;;;2.50;1.10;;;;;;;;;;4934960;29;20020;-51
2022/02/09 12:12:08;;;;;;;2.23;1.40;;;;;;;;;;4929694;29;20070;-50
2022/02/09 12:14:48;;;;;;;2.38;1.20;;;;;;;;;;4934344;29;20372;-50
2022/02/09 12:17:28;;;;;;;2.40;1.13;;;;;;;;;;4931917;29;20264;-51
2022/02/09 12:20:04;;;;;;;3.15;1.20;;;;;;;;;;4927967;29;20504;-49
2022/02/09 12:22:39;;;;;;;2.13;1.33;;;;;;;;;;4926971;29;20088;-51
2022/02/09 12:25:05;;;;;;;1.65;1.00;;;;;;;;;;4939695;29;20037;-51
2022/02/09 12:27:30;;;;;;;2.65;1.20;;;;;;;;;;4936679;29;20016;-50
2022/02/09 12:29:59;;;;;;;2.00;1.40;;;;;;;;;;4928686;29;20067;-49
2022/02/09 12:32:25;;;;;;;2.77;1.33;;;;;;;;;;4926390;29;20609;-51
2022/02/09 12:35:05;;;;;;;2.22;1.70;;;;;;;;;;4930139;29;20490;-51
2022/02/09 12:37:31;;;;;;;2.78;1.27;;;;;;;;;;4930276;29;20024;-52
2022/02/09 12:40:01;;;;;;;2.53;1.27;;;;;;;;;;4928421;29;20019;-52
2022/02/09 12:42:27;;;;;;;;;;;;;;;;;;4931839;29;20024;-50
2022/02/09 12:44:58;;;;;;;2.83;1.23;;;;;;;;;;4934337;29;19925;-51
2022/02/09 12:47:34;;;;;;;2.78;1.00;;;;;;;;;;4935501;29;20031;-52
2022/02/09 12:50:00;;;;;;;2.22;1.35;;;;;;;;;;4931933;29;20064;-51
2022/02/09 12:52:28;;;;;;;2.75;1.40;;;;;;;;;;4930843;29;20039;-52
2022/02/09 12:55:12;;;;;;;2.60;1.20;;;;;;;;;;4933073;29;20494;-53
2022/02/09 12:57:46;;;;;;;2.63;1.70;;;;;;;;;;4933383;29;20035;-51
2022/02/09 13:00:33;;;;;;;2.83;1.50;;;;;;;;;;4931816;29;20245;-51
2022/02/09 13:02:59;;;;;;;2.17;1.20;;;;;;;;;;4932029;29;20035;-49
2022/02/09 13:05:24;;;;;;;2.10;1.27;;;;;;;;;;4932174;29;20032;-51
2022/02/09 13:07:51;;;;;;;1.90;1.02;;;;;;;;;;4932923;29;20094;-49
2022/02/09 13:10:21;;;;;;;2.38;1.10;;;;;;;;;;4933719;29;20023;-51
2022/02/09 13:12:46;;;;;;;;;;;;;;;;;;4931664;29;20035;-51
2022/02/09 13:15:18;;;;;;;2.33;1.25;;;;;;;;;;4932766;29;20372;-51
2022/02/09 13:18:38;;;;;;;2.95;1.20;;;;;;;;;;4934105;29;20031;-52
2022/02/09 13:26:00;;;;;;;2.25;1.40;;;;;;;;;;4930981;29;20055;-52
2022/02/09 13:54:32;;;;;;;2.97;1.25;;;;;;;;;;4924919;28;20030;-50
2022/02/09 14:15:34;;;;;;;1.80;0.90;;;;;;;;;;4938697;29;20479;-49
2022/02/09 14:55:42;;;;;;;1.80;1.10;;;;;;;;;;4941792;29;20031;-49
2022/02/09 14:58:10;;;;;;;2.40;1.33;;;;;;;;;;4946430;29;20735;-49
2022/02/09 15:00:40;;;;;;;2.33;1.30;;;;;;;;;;4937667;29;20119;-50
2022/02/09 15:03:21;;;;;;;2.83;1.17;;;;;;;;;;4948605;29;20510;-51
2022/02/09 15:08:25;;;;;;;1.63;1.13;;;;;;;;;;4946624;29;20038;-49
2022/02/09 15:11:06;;;;;;;1.98;1.38;;;;;;;;;;4941306;29;20078;-50
2022/02/09 15:13:46;;;;;;;3.03;1.13;;;;;;;;;;4947110;29;20035;-49
2022/02/09 15:24:13;;;;;;;1.77;1.20;;;;;;;;;;4934658;29;20523;-50
2022/02/09 15:26:38;;;;;;;1.88;1.20;;;;;;;;;;4931685;29;20039;-48
2022/02/09 15:29:04;;;;;;;1.77;1.13;;;;;;;;;;4932311;29;20661;-50
2022/02/09 15:31:42;;;;;;;2.13;1.13;;;;;;;;;;4947264;29;20101;-49
2022/02/09 15:39:23;;;;;;;2.05;1.10;;;;;;;;;;4929561;29;20110;-49
2022/02/09 15:58:19;;;;;;;2.30;1.25;;;;;;;;;;4928926;29;20058;-50
2022/02/09 16:22:30;;;;;;;2.42;1.00;;;;;;;;;;4946878;29;20527;-50
2022/02/09 16:25:24;;;;;;;1.90;1.30;;;;;;;;;;4942722;29;20019;-50
2022/02/09 16:33:28;;;;;;;1.95;1.40;;;;;;;;;;4927837;29;20018;-51
2022/02/09 16:44:47;;;;;;;2.25;1.35;;;;;;;;;;4929858;29;20150;-50
2022/02/09 16:46:41;;;;;;;1.80;1.20;;;;;;;;;;4930226;29;20075;-51
2022/02/09 16:49:24;;;;;;;1.92;1.30;;;;;;;;;;4928591;29;20039;-51
2022/02/09 16:51:58;;;;;;;2.45;1.40;;;;;;;;;;4928025;29;20020;-49
2022/02/09 16:54:33;;;;;;;2.42;1.45;;;;;;;;;;4941806;29;20633;-50
2022/02/09 17:21:12;;;;;;;2.13;1.50;;;;;;;;;;4905708;29;20111;-50
2022/02/09 17:23:37;;;;;;;3.35;1.30;;;;;;;;;;4907613;29;20509;-50
2022/02/09 17:26:03;;;;;;;11.23;1.88;;;;;;;;;;4899598;29;20029;-51
2022/02/09 17:28:28;;;;;;;12.02;2.10;;;;;;;;;;4894024;29;20036;-51
2022/02/09 17:57:23;;;;;;;3.22;1.33;;;;;;;;;;4905873;29;20031;-50
2022/02/09 18:00:07;;;;;;;6.60;2.15;;;;;;;;;;4902857;29;20805;-50
2022/02/09 18:02:34;;;;;;;7.03;2.05;;;;;;;;;;4898752;29;20119;-50
2022/02/09 18:04:59;;;;;;;3.15;1.55;;;;;;;;;;4900879;29;20119;-51
2022/02/09 18:07:25;;;;;;;5.50;1.60;;;;;;;;;;4934867;29;20497;-50
2022/02/09 18:09:52;;;;;;;4.57;1.65;;;;;;;;;;4940123;29;20298;-51
2022/02/09 18:12:28;;;;;;;7.47;1.70;;;;;;;;;;4940162;29;20027;-51
2022/02/09 18:15:11;;;;;;;2.85;1.50;;;;;;;;;;4945031;29;20019;-50
2022/02/09 18:30:57;;;;;;;3.60;1.50;;;;;;;;;;4933074;29;20027;-51
2022/02/09 19:03:01;;;;;;;4.90;2.50;;;;;;;;;;4935458;29;20031;-50
2022/02/09 19:05:34;;;;;;;3.80;2.40;;;;;;;;;;4943088;28;20051;-51
2022/02/09 19:32:58;;;;;;;4.82;3.30;;;;;;;;;;4948801;29;20730;-50
2022/02/09 19:48:07;;;;;;;5.30;3.27;;;;;;;;;;4945299;29;20038;-50
2022/02/09 19:55:56;;;;;;;5.75;2.90;;;;;;;;;;4945326;29;20612;-50
2022/02/09 19:58:23;;;;;;;4.15;2.90;;;;;;;;;;4946117;29;20138;-51
2022/02/09 20:00:49;;;;;;;5.22;3.20;;;;;;;;;;4941133;29;20102;-50
2022/02/09 20:03:14;;;;;;;5.18;2.60;;;;;;;;;;4946653;29;20102;-51
2022/02/09 20:05:39;;;;;;;4.18;2.58;;;;;;;;;;4945427;29;20493;-51
2022/02/09 20:08:06;;;;;;;4.97;2.93;;;;;;;;;;4944769;29;20035;-52
2022/02/09 20:10:32;;;;;;;4.57;3.10;;;;;;;;;;4941691;29;20282;-50
2022/02/09 20:12:58;;;;;;;4.55;2.90;;;;;;;;;;4924480;29;20395;-50
2022/02/09 20:15:23;;;;;;;4.85;2.88;;;;;;;;;;4939400;29;20038;-51
2022/02/09 20:17:48;;;;;;;3.95;2.65;;;;;;;;;;4944479;29;20086;-52
2022/02/09 20:20:21;;;;;;;4.55;2.85;;;;;;;;;;4941866;29;20081;-51
2022/02/09 20:22:48;;;;;;;6.45;2.97;;;;;;;;;;4947119;29;20015;-55
2022/02/09 20:25:13;;;;;;;5.38;3.03;;;;;;;;;;4937380;29;20167;-51
2022/02/09 20:27:39;;;;;;;4.43;2.80;;;;;;;;;;4944172;29;20114;-52
2022/02/09 20:30:07;;;;;;;4.60;2.80;;;;;;;;;;4924253;29;20035;-51
2022/02/09 20:32:37;;;;;;;3.60;2.60;;;;;;;;;;4945477;29;20032;-51
2022/02/09 20:35:06;;;;;;;4.63;2.47;;;;;;;;;;4943113;29;20490;-51
2022/02/09 20:37:32;;;;;;;5.13;2.80;;;;;;;;;;4941284;29;20023;-50
2022/02/09 20:40:06;;;;;;;4.47;2.80;;;;;;;;;;4941437;29;20048;-49
2022/02/09 20:42:31;;;;;;;5.63;3.00;;;;;;;;;;4947753;29;20019;-51
2022/02/09 20:45:08;;;;;;;4.40;2.65;;;;;;;;;;4926355;29;20064;-51
2022/02/09 20:47:34;;;;;;;3.97;2.78;;;;;;;;;;4937325;29;20090;-49
2022/02/09 20:49:59;;;;;;;4.60;2.57;;;;;;;;;;4937368;29;20407;-51
2022/02/09 20:52:24;;;;;;;4.37;2.40;;;;;;;;;;4946175;29;20100;-51
2022/02/09 20:54:49;;;;;;;5.57;2.93;;;;;;;;;;4944546;29;20032;-50
2022/02/09 20:57:15;;;;;;;4.30;2.63;;;;;;;;;;4940318;29;20282;-52
2022/02/09 20:59:46;;;;;;;3.70;2.53;;;;;;;;;;4944027;29;20105;-51
2022/02/09 21:04:55;;;;;;;;;;;;;;;;;;4948333;28;20035;-52
2022/02/09 21:07:33;;;;;;;4.22;2.65;;;;;;;;;;4944257;29;19925;-51
2022/02/09 21:10:13;;;;;;;4.47;2.50;;;;;;;;;;4944797;29;20509;-51
2022/02/09 21:12:49;;;;;;;;;;;;;;;;;;4947425;29;20119;-51
2022/02/09 21:20:44;;;;;;;3.42;2.42;;;;;;;;;;4944109;29;20047;-51
2022/02/09 22:25:31;;;;;;;4.10;2.50;;;;;;;;;;4948678;29;20031;-51
2022/02/09 22:45:24;;;;;;;3.53;2.20;;;;;;;;;;4948332;29;20031;-50
2022/02/09 22:45:54;;;;;;;4.95;2.13;;;;;;;;;;4942402;29;20059;-50
2022/02/09 22:54:25;;;;;;;3.00;2.03;;;;;;;;;;4943495;29;20110;-51
2022/02/09 22:56:27;;;;;;;3.50;2.30;;;;;;;;;;4939379;29;20418;-49
2022/02/09 22:58:53;;;;;;;4.63;2.20;;;;;;;;;;4948777;29;20592;-49
2022/02/09 23:01:31;;;;;;;3.10;2.23;;;;;;;;;;4944368;29;20039;-50
